Time;durP1;ratioP1;P1;durP2;ratioP2;P2;SDS_P1;SDS_P2;PMS_P1;PMS_P2;Temp;Humidity;BMP_temperature;BMP_pressure;BME280_temperature;BME280_humidity;BME280_pressure;Samples;Min_cycle;Max_cycle;Signal;HPM_P1;HPM_P2
2023/10/04 00:01:25;;;;;;;3.87;2.27;;;;;;;17.19;56.98;98574.88;5030447;28;20587;-72
2023/10/04 00:03:51;;;;;;;5.20;2.33;;;;;;;17.12;56.98;98581.00;5029493;28;20202;-71
2023/10/04 00:06:17;;;;;;;13.80;7.30;;;;;;;17.18;57.02;98582.97;5030015;28;20302;-72
2023/10/04 00:08:43;;;;;;;12.93;9.13;;;;;;;17.21;56.32;98582.66;5029668;28;20704;-71
2023/10/04 00:11:14;;;;;;;5.63;3.33;;;;;;;17.16;56.39;98591.09;5031480;28;20429;-71
2023/10/04 00:13:43;;;;;;;14.37;9.80;;;;;;;17.18;56.34;98588.28;5029297;28;20724;-71
2023/10/04 00:16:09;;;;;;;12.23;8.43;;;;;;;17.16;56.50;98595.56;5029731;28;20838;-72
2023/10/04 00:18:36;;;;;;;7.60;4.80;;;;;;;17.22;56.21;98589.63;5037269;28;20429;-71
2023/10/04 00:21:03;;;;;;;10.10;2.50;;;;;;;17.11;56.72;98593.38;5034632;28;20422;-72
2023/10/04 00:23:29;;;;;;;2.83;1.90;;;;;;;17.10;56.70;98588.25;5030211;28;20800;-71
2023/10/04 00:25:54;;;;;;;2.83;2.03;;;;;;;17.12;56.24;98589.75;5033728;28;20445;-71
2023/10/04 00:28:20;;;;;;;3.80;1.97;;;;;;;17.08;56.22;98593.69;5029465;28;20229;-72
2023/10/04 00:30:45;;;;;;;4.90;2.30;;;;;;;17.11;56.38;98598.69;5027369;28;20803;-71
2023/10/04 00:33:11;;;;;;;6.13;2.43;;;;;;;17.02;56.12;98597.81;5038061;28;20188;-71
2023/10/04 00:35:40;;;;;;;5.43;2.20;;;;;;;16.99;56.17;98594.66;5037440;28;20214;-71
2023/10/04 00:38:06;;;;;;;3.30;3.00;;;;;;;16.95;56.52;98602.09;5038448;28;20223;-72
2023/10/04 00:40:32;;;;;;;8.33;5.10;;;;;;;16.92;56.59;98599.75;5027291;28;20865;-72
2023/10/04 00:43:12;;;;;;;6.40;2.73;;;;;;;16.97;56.32;98601.94;5040318;28;20392;-72
2023/10/04 00:45:38;;;;;;;8.37;3.67;;;;;;;16.99;56.41;98589.38;5036318;28;20435;-72
2023/10/04 00:48:10;;;;;;;5.47;3.57;;;;;;;16.97;56.39;98594.84;5023144;28;21018;-72
2023/10/04 00:50:36;;;;;;;6.10;2.60;;;;;;;16.91;56.27;98576.91;5023035;28;20435;-72
2023/10/04 00:53:05;;;;;;;4.33;2.03;;;;;;;16.86;56.30;98589.78;5039478;28;20441;-73
2023/10/04 00:55:40;;;;;;;4.83;4.27;;;;;;;16.79;56.43;98586.94;5035033;28;20235;-72
2023/10/04 00:58:07;;;;;;;6.53;2.83;;;;;;;16.78;56.22;98582.66;5024292;28;20494;-71
2023/10/04 01:00:33;;;;;;;4.03;2.37;;;;;;;16.69;56.41;98583.59;5038683;28;20433;-72
2023/10/04 01:02:59;;;;;;;9.50;7.07;;;;;;;16.69;56.31;98586.25;5028498;28;20442;-71
2023/10/04 01:05:26;;;;;;;4.13;2.13;;;;;;;16.70;56.56;98585.22;5026996;28;20579;-71
2023/10/04 01:07:56;;;;;;;3.17;2.20;;;;;;;16.71;56.33;98586.91;5027997;28;20214;-72
2023/10/04 01:10:26;;;;;;;4.87;2.33;;;;;;;16.62;56.88;98577.25;5033215;28;20504;-72
2023/10/04 01:12:52;;;;;;;7.80;2.97;;;;;;;16.60;56.82;98590.66;5038243;28;20480;-71
2023/10/04 01:15:59;;;;;;;4.87;1.97;;;;;;;16.60;56.68;98574.78;5040948;28;20965;-72
2023/10/04 01:18:09;;;;;;;2.83;2.23;;;;;;;16.57;56.46;98580.38;5026978;28;20223;-70
2023/10/04 01:20:37;;;;;;;4.53;3.30;;;;;;;16.58;56.76;98572.28;5027908;28;20431;-70
2023/10/04 01:23:06;;;;;;;5.00;2.50;;;;;;;16.53;56.60;98579.03;5011443;28;20446;-71
2023/10/04 01:25:38;;;;;;;4.40;2.17;;;;;;;16.45;56.59;98590.38;5036157;28;20513;-71
2023/10/04 01:28:12;;;;;;;3.30;2.40;;;;;;;16.48;56.64;98591.91;5023810;28;20455;-72
2023/10/04 01:30:38;;;;;;;3.90;2.60;;;;;;;16.43;56.71;98587.91;5005557;28;20440;-69
2023/10/04 01:33:07;;;;;;;4.07;2.60;;;;;;;16.42;56.92;98580.97;5031221;28;20515;-70
2023/10/04 01:35:33;;;;;;;5.23;2.03;;;;;;;16.38;56.69;98574.31;5030667;28;20504;-72
2023/10/04 01:37:59;;;;;;;4.10;2.00;;;;;;;16.34;56.67;98572.97;5030013;28;20454;-71
2023/10/04 01:40:31;;;;;;;4.17;2.67;;;;;;;16.35;56.46;98573.78;5039528;28;20468;-71
2023/10/04 01:42:57;;;;;;;6.00;2.40;;;;;;;16.32;56.58;98582.88;5029126;28;20808;-70
2023/10/04 01:45:23;;;;;;;5.10;2.57;;;;;;;16.35;56.80;98582.59;5033259;28;20459;-70
2023/10/04 01:47:49;;;;;;;3.03;2.13;;;;;;;16.26;56.58;98586.13;5027129;28;20649;-72
2023/10/04 01:50:15;;;;;;;5.13;1.83;;;;;;;16.32;56.49;98582.06;5027631;28;20562;-72
2023/10/04 01:52:45;;;;;;;2.80;2.20;;;;;;;16.25;56.51;98587.16;5036298;28;21027;-72
2023/10/04 01:55:12;;;;;;;3.90;2.80;;;;;;;16.23;56.83;98581.19;5027868;28;21056;-72
2023/10/04 01:57:38;;;;;;;3.77;2.20;;;;;;;16.25;56.76;98581.84;5026710;28;20488;-72
2023/10/04 02:00:15;;;;;;;2.97;2.23;;;;;;;16.21;56.74;98581.31;5027612;28;20489;-70
2023/10/04 02:02:40;;;;;;;3.03;1.97;;;;;;;16.17;56.97;98585.28;5027265;28;20852;-70
2023/10/04 02:05:09;;;;;;;3.63;1.90;;;;;;;16.21;56.58;98583.16;5042300;28;20522;-70
2023/10/04 02:07:38;;;;;;;6.13;2.33;;;;;;;16.12;56.58;98591.03;5025972;28;20224;-70
2023/10/04 02:10:11;;;;;;;3.60;1.90;;;;;;;16.15;56.51;98587.25;5029282;28;20600;-71
2023/10/04 02:12:37;;;;;;;9.70;2.10;;;;;;;16.10;56.42;98584.22;5040983;28;20921;-73
2023/10/04 02:15:05;;;;;;;6.40;2.27;;;;;;;15.97;56.71;98584.63;5039861;28;20549;-70
2023/10/04 02:17:31;;;;;;;3.80;2.20;;;;;;;15.96;56.66;98582.97;5027008;28;20761;-72
2023/10/04 02:19:56;;;;;;;4.00;1.83;;;;;;;16.02;56.96;98584.16;5032453;28;20469;-72
2023/10/04 02:22:23;;;;;;;6.70;2.83;;;;;;;15.99;57.71;98587.94;5031092;28;20287;-71
2023/10/04 02:24:48;;;;;;;3.30;2.43;;;;;;;16.00;57.37;98581.69;5027599;28;20195;-71
2023/10/04 02:27:17;;;;;;;3.57;2.70;;;;;;;16.02;57.32;98586.81;5026666;28;20523;-71
2023/10/04 02:29:44;;;;;;;5.57;2.60;;;;;;;16.06;57.42;98586.34;5027525;28;20200;-71
2023/10/04 02:32:09;;;;;;;4.10;2.03;;;;;;;16.13;56.88;98590.00;5042846;28;20874;-71
2023/10/04 02:34:36;;;;;;;4.47;2.57;;;;;;;15.95;56.86;98589.22;5036844;28;20462;-72
2023/10/04 02:37:06;;;;;;;2.57;2.03;;;;;;;16.02;57.03;98587.63;5031136;28;20211;-72
2023/10/04 02:39:38;;;;;;;10.60;2.67;;;;;;;16.02;56.94;98590.25;5037619;28;20954;-70
2023/10/04 02:42:09;;;;;;;4.20;2.57;;;;;;;15.99;57.03;98593.25;5037324;28;20435;-71
2023/10/04 02:44:40;;;;;;;2.70;2.30;;;;;;;16.04;57.21;98587.50;5030006;28;20517;-70
2023/10/04 02:47:06;;;;;;;3.50;1.93;;;;;;;16.09;57.08;98586.03;5032360;28;20442;-71
2023/10/04 02:49:37;;;;;;;3.30;2.40;;;;;;;16.14;56.92;98596.16;5037535;28;21066;-70
2023/10/04 02:52:05;;;;;;;3.50;2.33;;;;;;;16.15;56.63;98589.88;5029660;28;20188;-72
2023/10/04 02:54:32;;;;;;;4.70;2.70;;;;;;;16.13;56.57;98597.94;5036235;28;20781;-71
2023/10/04 02:56:58;;;;;;;3.20;2.40;;;;;;;16.07;56.93;98597.75;5032496;28;20661;-73
2023/10/04 02:59:25;;;;;;;4.40;2.63;;;;;;;16.07;56.91;98590.66;5038280;28;20778;-71
2023/10/04 03:01:50;;;;;;;8.07;2.13;;;;;;;16.04;56.77;98600.72;5030834;28;20438;-72
2023/10/04 03:04:17;;;;;;;5.37;2.20;;;;;;;16.00;56.95;98604.63;5033598;28;20437;-72
2023/10/04 03:06:43;;;;;;;3.63;2.17;;;;;;;15.90;56.72;98605.56;5042127;28;20215;-69
2023/10/04 03:09:09;;;;;;;4.63;2.27;;;;;;;15.84;57.09;98595.53;5030832;28;20430;-71
2023/10/04 03:11:36;;;;;;;5.10;2.50;;;;;;;15.78;57.68;98604.09;5032008;28;20214;-70
2023/10/04 03:14:02;;;;;;;4.50;2.80;;;;;;;15.82;57.79;98593.06;5031250;28;20884;-71
2023/10/04 03:16:28;;;;;;;4.10;2.60;;;;;;;15.80;57.59;98587.09;5041549;28;20465;-69
2023/10/04 03:18:54;;;;;;;6.53;2.20;;;;;;;15.74;57.55;98593.00;5038175;28;20187;-72
2023/10/04 03:21:26;;;;;;;5.00;2.63;;;;;;;15.77;57.61;98587.38;5028542;28;20250;-72
2023/10/04 03:23:54;;;;;;;8.07;2.47;;;;;;;15.79;57.54;98588.06;5030579;28;20434;-70
2023/10/04 03:26:19;;;;;;;4.93;2.00;;;;;;;15.74;57.56;98594.78;5033068;28;20446;-72
2023/10/04 03:28:45;;;;;;;4.40;2.10;;;;;;;15.67;57.54;98599.84;5035926;28;21056;-70
2023/10/04 03:31:14;;;;;;;3.97;2.60;;;;;;;15.64;57.30;98611.56;5029827;28;20235;-70
2023/10/04 03:33:45;;;;;;;4.50;2.13;;;;;;;15.59;57.63;98613.00;5040703;28;20226;-69
2023/10/04 03:36:14;;;;;;;3.57;2.60;;;;;;;15.61;57.63;98609.22;5039946;28;20468;-72
2023/10/04 03:38:41;;;;;;;4.23;2.23;;;;;;;15.66;57.62;98606.13;5032732;28;20749;-69
2023/10/04 03:41:06;;;;;;;3.67;2.23;;;;;;;15.61;57.80;98611.88;5032124;28;20483;-71
2023/10/04 03:43:33;;;;;;;4.60;2.50;;;;;;;15.56;57.86;98608.00;5034082;28;20472;-69
2023/10/04 03:46:07;;;;;;;3.47;2.37;;;;;;;15.48;57.83;98608.75;5026002;28;20190;-71
2023/10/04 03:48:37;;;;;;;4.20;2.33;;;;;;;15.44;57.54;98597.66;5021786;28;20909;-70
2023/10/04 03:51:03;;;;;;;3.27;2.27;;;;;;;15.43;57.67;98603.91;5030542;28;20431;-70
2023/10/04 03:53:29;;;;;;;9.10;2.93;;;;;;;15.42;57.63;98596.97;5029746;28;20435;-70
2023/10/04 03:55:55;;;;;;;4.73;2.60;;;;;;;15.46;57.74;98600.16;5029568;28;20982;-70
2023/10/04 03:58:20;;;;;;;4.33;2.50;;;;;;;15.49;57.76;98602.50;5032343;28;20188;-72
2023/10/04 04:00:46;;;;;;;4.33;2.47;;;;;;;15.53;58.01;98601.22;5032071;28;20215;-71
2023/10/04 04:03:12;;;;;;;5.67;2.40;;;;;;;15.55;58.24;98611.63;5035169;28;20244;-71
2023/10/04 04:05:44;;;;;;;3.40;2.23;;;;;;;15.48;58.60;98612.25;5032662;28;20539;-71
2023/10/04 04:08:10;;;;;;;4.03;2.50;;;;;;;15.53;58.27;98614.44;5036119;28;20216;-70
2023/10/04 04:10:36;;;;;;;4.70;2.10;;;;;;;15.55;58.04;98619.56;5030251;28;20442;-71
2023/10/04 04:13:02;;;;;;;6.47;2.30;;;;;;;15.47;58.18;98621.16;5024715;28;20426;-71
2023/10/04 04:15:31;;;;;;;4.03;2.30;;;;;;;15.48;58.02;98614.03;5027766;28;20216;-69
2023/10/04 04:17:56;;;;;;;4.17;2.30;;;;;;;15.46;57.87;98619.47;5032205;28;21053;-70
2023/10/04 04:20:23;;;;;;;4.00;2.70;;;;;;;15.42;57.68;98612.81;5027926;28;20434;-71
2023/10/04 04:22:50;;;;;;;4.03;2.50;;;;;;;15.38;58.04;98615.91;5028613;28;20223;-71
2023/10/04 04:25:23;;;;;;;4.13;2.47;;;;;;;15.43;57.86;98625.06;5028002;28;20426;-70
2023/10/04 04:27:52;;;;;;;5.77;2.67;;;;;;;15.47;57.79;98615.88;5027855;28;20512;-69
2023/10/04 04:30:19;;;;;;;3.40;2.40;;;;;;;15.44;57.92;98617.94;5026290;28;20444;-67
2023/10/04 04:32:49;;;;;;;4.43;2.90;;;;;;;15.36;58.21;98619.53;5028072;28;20438;-71
2023/10/04 04:38:14;;;;;;;3.40;2.43;;;;;;;15.31;58.44;98623.59;5028454;28;20446;-70
2023/10/04 04:40:44;;;;;;;5.20;3.20;;;;;;;15.28;58.30;98621.25;5022112;28;20433;-70
2023/10/04 04:45:55;;;;;;;5.63;2.87;;;;;;;15.29;58.14;98636.97;5029539;28;20439;-70
2023/10/04 04:48:25;;;;;;;8.20;3.03;;;;;;;15.25;58.11;98637.41;5030351;28;20442;-70
2023/10/04 04:50:52;;;;;;;3.40;2.60;;;;;;;15.15;57.68;98643.56;5034854;28;20442;-68
2023/10/04 04:53:20;;;;;;;4.20;2.60;;;;;;;15.19;58.04;98638.81;5034717;28;20584;-72
2023/10/04 04:55:46;;;;;;;3.57;2.80;;;;;;;15.17;57.99;98631.03;5027707;28;20558;-69
2023/10/04 04:58:14;;;;;;;6.43;3.03;;;;;;;15.18;58.10;98632.72;5026562;28;20541;-68
2023/10/04 05:00:43;;;;;;;7.27;3.10;;;;;;;15.22;58.23;98637.69;5028351;28;20192;-69
2023/10/04 05:03:09;;;;;;;5.47;3.00;;;;;;;15.15;58.57;98637.44;5026547;28;20480;-71
2023/10/04 05:05:35;;;;;;;6.40;2.70;;;;;;;15.12;58.59;98630.63;5039776;28;20495;-68
2023/10/04 05:08:00;;;;;;;7.53;3.63;;;;;;;15.11;58.83;98630.78;5036271;28;21026;-70
2023/10/04 05:10:30;;;;;;;6.20;3.03;;;;;;;15.17;58.54;98633.69;5032344;28;20672;-71
2023/10/04 05:12:55;;;;;;;6.27;3.23;;;;;;;15.08;58.52;98629.28;5027623;28;20195;-71
2023/10/04 05:15:23;;;;;;;5.27;3.10;;;;;;;15.10;58.57;98634.41;5040637;28;21014;-70
2023/10/04 05:17:51;;;;;;;5.87;3.40;;;;;;;15.08;58.46;98634.56;5032106;28;20211;-70
2023/10/04 05:20:21;;;;;;;5.60;4.10;;;;;;;15.15;58.59;98634.81;5035355;28;20963;-72
2023/10/04 05:22:50;;;;;;;10.33;7.40;;;;;;;15.32;59.02;98631.38;5039091;28;20530;-68
2023/10/04 05:25:16;;;;;;;9.67;6.60;;;;;;;15.47;58.54;98631.72;5035132;28;20485;-70
2023/10/04 05:27:43;;;;;;;7.30;4.30;;;;;;;15.52;57.83;98618.88;5039625;28;21036;-72
2023/10/04 05:30:15;;;;;;;7.47;4.47;;;;;;;15.56;57.09;98621.22;5032381;28;20450;-69
2023/10/04 05:32:42;;;;;;;7.50;4.83;;;;;;;15.60;57.20;98626.06;5034104;28;20525;-71
2023/10/04 05:35:12;;;;;;;6.60;3.57;;;;;;;15.61;56.91;98624.25;5033011;28;20457;-70
2023/10/04 05:37:41;;;;;;;6.83;3.73;;;;;;;15.59;56.67;98619.09;5031881;28;20766;-72
2023/10/04 05:40:23;;;;;;;4.73;3.57;;;;;;;15.60;56.71;98619.94;5032014;28;20431;-70
2023/10/04 05:42:49;;;;;;;5.30;3.20;;;;;;;15.57;56.52;98633.47;5025624;28;21020;-70
2023/10/04 05:45:14;;;;;;;4.50;3.00;;;;;;;15.62;56.48;98626.75;5028750;28;20509;-71
2023/10/04 05:47:40;;;;;;;4.10;3.23;;;;;;;15.71;56.28;98637.38;5023781;28;20549;-70
2023/10/04 05:50:12;;;;;;;11.70;9.40;;;;;;;15.74;56.24;98640.56;5027348;28;20287;-69
2023/10/04 05:52:39;;;;;;;5.80;3.90;;;;;;;15.74;56.08;98643.22;5024044;28;20187;-69
2023/10/04 05:55:08;;;;;;;10.30;5.40;;;;;;;15.70;56.21;98636.56;5031401;28;20469;-71
2023/10/04 05:57:35;;;;;;;7.17;3.53;;;;;;;15.68;55.92;98632.41;5022209;28;20477;-71
2023/10/04 06:00:06;;;;;;;10.40;4.70;;;;;;;15.68;55.86;98637.69;5027933;28;20522;-69
2023/10/04 06:02:32;;;;;;;8.70;4.70;;;;;;;15.70;55.99;98631.28;5029191;28;20493;-70
2023/10/04 06:04:57;;;;;;;69.40;46.53;;;;;;;15.89;56.02;98640.06;5038022;28;20936;-70
2023/10/04 06:07:23;;;;;;;57.00;43.40;;;;;;;16.03;55.80;98639.53;5028199;28;20619;-70
2023/10/04 06:09:48;;;;;;;21.73;13.70;;;;;;;16.15;55.69;98639.28;5032996;28;20282;-69
2023/10/04 06:12:14;;;;;;;10.70;5.40;;;;;;;16.23;55.64;98642.03;5031450;28;20286;-70
2023/10/04 06:14:40;;;;;;;6.40;5.00;;;;;;;16.28;55.34;98639.72;5027020;28;20199;-69
2023/10/04 06:17:06;;;;;;;7.00;4.17;;;;;;;16.28;55.26;98645.84;5027437;28;20496;-72
2023/10/04 06:19:31;;;;;;;7.23;3.70;;;;;;;16.33;55.18;98648.03;5034848;28;20191;-69
2023/10/04 06:21:57;;;;;;;10.90;4.10;;;;;;;16.26;55.38;98657.56;5038774;28;20710;-70
2023/10/04 06:24:22;;;;;;;9.10;4.10;;;;;;;16.32;55.58;98650.84;5027014;28;20635;-71
2023/10/04 06:26:48;;;;;;;6.10;3.30;;;;;;;16.40;55.71;98646.44;5027381;28;20222;-70
2023/10/04 06:29:14;;;;;;;9.70;5.10;;;;;;;16.56;55.71;98647.53;5027280;28;20211;-70
2023/10/04 06:31:41;;;;;;;4.67;3.37;;;;;;;16.68;55.60;98661.34;5023621;28;20223;-69
2023/10/04 06:34:07;;;;;;;5.23;3.27;;;;;;;16.81;55.44;98658.25;5027468;28;20426;-71
2023/10/04 06:36:33;;;;;;;5.80;3.70;;;;;;;16.82;55.46;98663.41;5027421;28;20741;-71
2023/10/04 06:38:59;;;;;;;7.37;3.90;;;;;;;16.85;55.69;98654.31;5025050;28;20199;-71
2023/10/04 06:41:25;;;;;;;4.20;3.10;;;;;;;17.01;55.69;98658.91;5039388;28;20425;-69
2023/10/04 06:43:51;;;;;;;8.17;2.80;;;;;;;17.12;55.53;98674.50;5028651;28;20253;-70
2023/10/04 06:46:17;;;;;;;12.10;3.00;;;;;;;17.17;55.91;98671.38;5026260;28;20454;-68
2023/10/04 06:48:43;;;;;;;4.83;3.10;;;;;;;17.22;55.87;98669.09;5036810;28;20187;-69
2023/10/04 06:51:09;;;;;;;4.47;3.43;;;;;;;17.33;55.53;98671.47;5034384;28;20195;-67
2023/10/04 06:53:35;;;;;;;11.17;4.00;;;;;;;17.13;56.12;98665.59;5029830;28;20222;-69
2023/10/04 06:56:01;;;;;;;9.70;4.03;;;;;;;17.12;56.16;98668.41;5022536;28;20489;-70
2023/10/04 06:58:28;;;;;;;30.10;20.87;;;;;;;17.11;56.54;98677.34;5031666;28;20192;-71
2023/10/04 07:00:54;;;;;;;12.13;7.17;;;;;;;17.21;56.88;98680.69;5030804;28;20566;-69
2023/10/04 07:03:21;;;;;;;12.80;6.47;;;;;;;17.26;56.89;98681.06;5027262;28;20487;-70
2023/10/04 07:05:49;;;;;;;14.10;9.97;;;;;;;17.26;56.97;98670.44;5034917;28;21236;-70
2023/10/04 07:08:16;;;;;;;13.80;7.07;;;;;;;17.29;56.90;98672.75;5042162;28;20611;-71
2023/10/04 07:10:43;;;;;;;13.70;8.40;;;;;;;17.36;56.67;98680.91;5027075;28;20458;-71
2023/10/04 07:13:08;;;;;;;7.77;5.00;;;;;;;17.36;56.55;98686.19;5026931;28;20512;-70
2023/10/04 07:15:41;;;;;;;10.37;8.30;;;;;;;17.45;57.24;98687.88;5026572;28;21131;-72
2023/10/04 07:18:09;;;;;;;8.43;6.90;;;;;;;17.48;57.16;98682.28;5028512;28;20242;-71
2023/10/04 07:20:35;;;;;;;7.00;4.17;;;;;;;17.56;56.36;98680.66;5040617;28;20425;-71
2023/10/04 07:23:05;;;;;;;7.40;3.80;;;;;;;17.62;56.16;98691.44;5032153;28;20461;-71
2023/10/04 07:25:32;;;;;;;12.60;3.50;;;;;;;17.66;55.94;98687.47;5045031;28;20194;-69
2023/10/04 07:28:02;;;;;;;7.97;3.40;;;;;;;17.72;54.79;98696.59;5030399;28;21181;-73
2023/10/04 07:30:29;;;;;;;5.07;3.50;;;;;;;17.78;54.52;98693.31;5026559;28;20439;-73
2023/10/04 07:32:55;;;;;;;9.50;4.57;;;;;;;17.79;54.44;98689.66;5030976;28;20449;-72
2023/10/04 07:35:25;;;;;;;8.17;3.43;;;;;;;17.83;53.78;98690.16;5034874;28;20841;-71
2023/10/04 07:37:51;;;;;;;6.43;2.47;;;;;;;17.88;53.24;98687.84;5039263;28;20218;-71
2023/10/04 07:40:17;;;;;;;10.40;3.13;;;;;;;17.92;53.27;98685.69;5030975;28;20430;-71
2023/10/04 07:42:45;;;;;;;6.70;2.60;;;;;;;17.99;53.23;98686.72;5042573;28;20421;-72
2023/10/04 07:45:12;;;;;;;4.63;2.60;;;;;;;18.08;52.97;98690.22;5035126;28;20653;-72
2023/10/04 07:47:41;;;;;;;4.50;2.33;;;;;;;18.19;52.36;98692.56;5030107;28;20473;-70
2023/10/04 07:50:09;;;;;;;3.20;2.20;;;;;;;18.36;52.15;98705.84;5030452;28;20434;-71
2023/10/04 07:52:39;;;;;;;4.67;1.90;;;;;;;18.53;51.41;98696.84;5042937;28;20938;-72
2023/10/04 07:55:12;;;;;;;5.10;2.13;;;;;;;18.72;51.27;98702.81;5030211;28;20489;-71
2023/10/04 07:57:41;;;;;;;3.80;1.70;;;;;;;18.98;50.14;98704.47;5033684;28;20461;-72
2023/10/04 08:00:12;;;;;;;5.10;1.67;;;;;;;19.17;49.46;98711.22;5035575;28;20438;-71
2023/10/04 08:02:37;;;;;;;6.10;1.90;;;;;;;19.44;49.47;98706.47;5033546;28;20437;-71
2023/10/04 08:05:06;;;;;;;4.20;1.83;;;;;;;19.72;48.53;98708.66;5034645;28;20426;-71
2023/10/04 08:07:32;;;;;;;4.83;1.97;;;;;;;20.08;48.48;98708.97;5029616;28;20728;-72
2023/10/04 08:09:58;;;;;;;9.63;2.20;;;;;;;20.35;47.11;98696.13;5035179;28;20418;-71
2023/10/04 08:12:26;;;;;;;4.17;1.77;;;;;;;20.66;46.63;98695.19;5034406;28;20438;-71
2023/10/04 08:14:56;;;;;;;3.23;1.73;;;;;;;20.91;46.31;98689.66;5037171;28;20211;-72
2023/10/04 08:17:23;;;;;;;4.33;1.80;;;;;;;21.10;45.80;98692.75;5038233;28;20438;-72
2023/10/04 08:19:49;;;;;;;5.83;2.20;;;;;;;21.42;44.95;98693.41;5033639;28;20433;-72
2023/10/04 08:22:15;;;;;;;5.27;2.30;;;;;;;21.71;44.39;98694.34;5036865;28;20427;-71
2023/10/04 08:24:41;;;;;;;8.83;2.17;;;;;;;21.94;44.01;98699.53;5032504;28;20199;-71
2023/10/04 08:27:06;;;;;;;11.10;1.67;;;;;;;22.12;43.88;98693.75;5041244;28;20458;-70
2023/10/04 08:29:34;;;;;;;3.60;1.73;;;;;;;22.44;42.91;98696.94;5030108;28;20279;-71
2023/10/04 08:32:00;;;;;;;6.80;1.90;;;;;;;22.57;42.05;98692.72;5021777;28;20207;-71
2023/10/04 08:34:25;;;;;;;2.90;1.40;;;;;;;22.78;41.92;98698.03;5034008;28;20430;-70
2023/10/04 08:36:51;;;;;;;5.03;1.70;;;;;;;22.96;41.07;98694.88;5033084;28;20213;-73
2023/10/04 08:39:17;;;;;;;5.67;1.77;;;;;;;23.14;39.87;98691.69;5029567;28;20275;-73
2023/10/04 08:41:42;;;;;;;3.80;1.57;;;;;;;23.39;39.61;98688.53;5034513;28;20456;-72
2023/10/04 08:44:08;;;;;;;6.10;1.70;;;;;;;23.55;39.14;98691.88;5037601;28;20271;-72
2023/10/04 08:46:36;;;;;;;6.60;1.53;;;;;;;23.68;39.45;98685.75;5028643;28;20207;-71
2023/10/04 08:49:02;;;;;;;5.57;1.70;;;;;;;23.86;38.03;98691.38;5028137;28;20261;-72
2023/10/04 08:51:40;;;;;;;4.40;1.70;;;;;;;23.97;37.81;98689.97;5037108;28;20559;-71
2023/10/04 08:54:21;;;;;;;5.10;1.50;;;;;;;24.13;37.21;98680.72;5037720;28;21050;-72
2023/10/04 08:56:57;;;;;;;7.97;1.70;;;;;;;24.21;37.41;98680.53;5024631;28;20488;-72
2023/10/04 08:59:24;;;;;;;20.80;1.70;;;;;;;24.25;35.82;98674.78;5029980;28;20814;-72
2023/10/04 09:01:50;;;;;;;4.03;1.60;;;;;;;24.43;36.35;98683.00;5042135;28;20434;-74
2023/10/04 09:04:18;;;;;;;4.73;1.67;;;;;;;24.61;35.85;98685.06;5031615;28;20441;-73
2023/10/04 09:06:47;;;;;;;6.90;1.60;;;;;;;24.90;36.33;98677.63;5022027;28;20523;-73
2023/10/04 09:09:15;;;;;;;4.97;1.87;;;;;;;25.09;35.46;98664.34;5043399;28;20446;-73
2023/10/04 09:11:41;;;;;;;7.80;1.70;;;;;;;25.23;34.83;98659.78;5037257;28;20524;-71
2023/10/04 09:14:08;;;;;;;5.50;1.70;;;;;;;25.34;34.87;98664.50;5029335;28;20893;-71
2023/10/04 09:16:34;;;;;;;4.00;1.77;;;;;;;25.41;35.03;98662.63;5035850;28;20549;-71
2023/10/04 09:19:08;;;;;;;3.20;1.43;;;;;;;25.56;34.75;98659.69;5037853;28;20426;-72
2023/10/04 09:21:38;;;;;;;9.13;1.67;;;;;;;25.94;34.13;98659.88;5028437;28;20199;-71
2023/10/04 09:24:14;;;;;;;5.23;1.63;;;;;;;26.16;33.35;98645.06;5029677;28;21114;-74
2023/10/04 09:26:49;;;;;;;3.83;1.70;;;;;;;26.26;32.55;98641.91;5030633;28;20449;-71
2023/10/04 09:29:15;;;;;;;5.63;1.60;;;;;;;26.44;32.16;98648.34;5029899;28;20429;-72
2023/10/04 09:31:50;;;;;;;2.73;1.70;;;;;;;26.59;31.97;98650.69;5023734;28;20462;-74
2023/10/04 09:34:16;;;;;;;4.50;1.27;;;;;;;26.63;32.50;98650.03;5036444;28;20437;-72
2023/10/04 09:36:42;;;;;;;7.33;1.80;;;;;;;26.74;31.70;98648.47;5028497;28;20469;-74
2023/10/04 09:39:13;;;;;;;4.00;1.60;;;;;;;26.92;31.61;98642.31;5034641;28;20429;-73
2023/10/04 09:41:44;;;;;;;6.73;1.73;;;;;;;26.97;31.14;98641.63;5030925;28;20194;-73
2023/10/04 09:44:30;;;;;;;3.03;1.50;;;;;;;27.00;30.75;98643.06;5034979;28;20789;-72
2023/10/04 09:46:57;;;;;;;6.10;2.47;;;;;;;27.25;30.89;98643.78;5035900;28;20451;-71
2023/10/04 09:49:28;;;;;;;3.13;1.60;;;;;;;27.61;30.43;98641.28;5028467;28;21134;-71
2023/10/04 09:51:55;;;;;;;4.17;1.70;;;;;;;27.67;28.98;98644.91;5026903;28;21023;-71
2023/10/04 09:54:24;;;;;;;6.20;1.53;;;;;;;27.72;29.12;98643.19;5023609;28;20430;-71
2023/10/04 09:56:51;;;;;;;9.37;1.80;;;;;;;27.82;28.84;98644.53;5034343;28;20885;-72
2023/10/04 09:59:21;;;;;;;3.93;1.50;;;;;;;28.03;29.78;98640.47;5028100;28;20473;-73
2023/10/04 10:01:52;;;;;;;4.87;1.50;;;;;;;28.27;29.13;98641.34;5034162;28;20470;-72
2023/10/04 10:04:23;;;;;;;5.10;1.63;;;;;;;28.40;28.07;98642.16;5029801;28;20433;-71
2023/10/04 10:07:15;;;;;;;3.63;1.10;;;;;;;28.57;28.58;98635.03;5029020;28;20458;-72
2023/10/04 10:10:11;;;;;;;8.57;1.70;;;;;;;28.42;28.01;98631.97;5023997;28;20529;-72
2023/10/04 10:12:37;;;;;;;3.27;1.57;;;;;;;28.27;27.70;98633.25;5034586;28;20446;-72
2023/10/04 10:15:07;;;;;;;3.00;1.70;;;;;;;28.07;27.96;98638.94;5026637;28;20477;-71
2023/10/04 10:17:34;;;;;;;4.23;1.63;;;;;;;27.53;28.72;98636.22;5034879;28;20221;-72
2023/10/04 10:20:00;;;;;;;5.20;1.50;;;;;;;27.52;29.05;98637.25;5039010;28;20424;-73
2023/10/04 10:22:25;;;;;;;3.40;1.73;;;;;;;27.49;28.72;98637.72;5032031;28;20449;-72
2023/10/04 10:24:57;;;;;;;5.40;1.57;;;;;;;27.50;29.02;98644.75;5027178;28;20434;-73
2023/10/04 10:27:24;;;;;;;5.80;1.40;;;;;;;27.62;28.44;98645.59;5034567;28;20278;-71
2023/10/04 10:29:51;;;;;;;4.43;1.53;;;;;;;27.67;28.97;98645.75;5028259;28;20961;-71
2023/10/04 10:32:22;;;;;;;4.13;1.53;;;;;;;28.00;28.11;98649.81;5022003;28;20446;-72
2023/10/04 10:34:53;;;;;;;2.83;1.57;;;;;;;27.83;27.93;98646.16;5029031;28;20430;-72
2023/10/04 10:37:19;;;;;;;8.47;1.70;;;;;;;28.01;27.42;98647.97;5031012;28;20554;-73
2023/10/04 10:39:52;;;;;;;9.30;1.50;;;;;;;28.18;27.49;98642.75;5029250;28;20430;-72
2023/10/04 10:42:18;;;;;;;3.70;1.40;;;;;;;28.43;27.73;98633.63;5022499;28;20435;-73
2023/10/04 10:44:44;;;;;;;2.50;1.50;;;;;;;28.77;27.13;98641.94;5023983;28;20445;-72
2023/10/04 10:47:25;;;;;;;4.33;1.47;;;;;;;28.85;26.20;98638.91;5030448;28;20224;-73
2023/10/04 10:50:14;;;;;;;4.40;1.73;;;;;;;28.92;26.20;98626.09;5028355;28;20427;-72
2023/10/04 10:52:41;;;;;;;2.03;1.40;;;;;;;28.72;26.21;98636.44;5026960;28;20933;-72
2023/10/04 10:55:16;;;;;;;3.10;1.70;;;;;;;28.69;26.77;98639.59;5038143;28;20454;-72
2023/10/04 10:57:44;;;;;;;2.60;1.60;;;;;;;28.20;27.59;98625.28;5031386;28;20941;-73
2023/10/04 11:00:22;;;;;;;3.90;1.77;;;;;;;28.26;27.85;98626.22;5038372;28;20477;-72
2023/10/04 11:02:48;;;;;;;2.37;1.57;;;;;;;28.53;26.72;98628.47;5034756;28;20812;-71
2023/10/04 11:05:16;;;;;;;4.73;1.40;;;;;;;28.44;26.20;98622.59;5031451;28;20433;-72
2023/10/04 11:07:42;;;;;;;6.53;1.50;;;;;;;28.62;26.64;98623.53;5031263;28;20454;-73
2023/10/04 11:10:12;;;;;;;1.90;1.43;;;;;;;28.88;26.53;98626.81;5039762;28;20449;-72
2023/10/04 11:12:38;;;;;;;2.90;1.60;;;;;;;29.22;26.48;98619.69;5035784;28;20444;-72
2023/10/04 11:15:06;;;;;;;5.73;2.20;;;;;;;29.17;26.66;98618.78;5029044;28;20983;-73
2023/10/04 11:17:33;;;;;;;3.57;1.53;;;;;;;29.40;25.82;98617.88;5035405;28;20215;-72
2023/10/04 11:19:58;;;;;;;5.37;1.83;;;;;;;29.33;25.76;98604.50;5029631;28;20934;-71
2023/10/04 11:22:25;;;;;;;3.57;1.90;;;;;;;28.84;26.60;98606.75;5031508;28;20468;-72
2023/10/04 11:24:51;;;;;;;5.93;1.90;;;;;;;28.20;27.14;98605.63;5032091;28;20195;-73
2023/10/04 11:27:21;;;;;;;3.30;1.60;;;;;;;27.77;28.35;98612.91;5038500;28;20460;-71
2023/10/04 11:29:49;;;;;;;2.00;1.70;;;;;;;27.29;28.56;98606.47;5045694;28;20518;-72
2023/10/04 11:32:14;;;;;;;6.57;3.70;;;;;;;27.10;29.45;98598.44;5033861;28;20487;-72
2023/10/04 11:34:44;;;;;;;6.50;1.80;;;;;;;26.92;28.94;98601.16;5034270;28;20426;-72
2023/10/04 11:37:09;;;;;;;3.87;2.50;;;;;;;27.04;29.08;98595.81;5038756;28;20811;-71
2023/10/04 11:39:36;;;;;;;3.10;1.47;;;;;;;27.12;27.40;98590.97;5034853;28;20495;-71
2023/10/04 11:42:17;;;;;;;3.23;1.70;;;;;;;27.28;26.88;98594.06;5035205;28;20199;-71